sensor_id;sensor_type;location;lat;lon;timestamp;temperature;humidity
10583;DHT22;33679;51.218;6.786;2022-09-13T00:02:16;22.70;99.90
10583;DHT22;33679;51.218;6.786;2022-09-13T00:04:48;22.70;99.90
10583;DHT22;33679;51.218;6.786;2022-09-13T00:07:15;22.70;99.90
10583;DHT22;33679;51.218;6.786;2022-09-13T00:09:43;22.70;99.90
10583;DHT22;33679;51.218;6.786;2022-09-13T00:12:10;22.70;99.90
10583;DHT22;33679;51.218;6.786;2022-09-13T00:14:37;22.70;99.90
10583;DHT22;33679;51.218;6.786;2022-09-13T00:17:09;22.70;99.90
10583;DHT22;33679;51.218;6.786;2022-09-13T00:19:36;22.60;99.90
10583;DHT22;33679;51.218;6.786;2022-09-13T00:22:04;22.70;99.90
10583;DHT22;33679;51.218;6.786;2022-09-13T00:24:34;22.60;99.90
10583;DHT22;33679;51.218;6.786;2022-09-13T00:27:02;22.60;99.90
10583;DHT22;33679;51.218;6.786;2022-09-13T00:29:36;22.50;99.90
10583;DHT22;33679;51.218;6.786;2022-09-13T00:32:03;22.50;99.90
10583;DHT22;33679;51.218;6.786;2022-09-13T00:34:30;22.60;99.90
10583;DHT22;33679;51.218;6.786;2022-09-13T00:37:16;22.60;99.90
10583;DHT22;33679;51.218;6.786;2022-09-13T00:39:43;22.60;99.90
10583;DHT22;33679;51.218;6.786;2022-09-13T00:42:11;22.50;99.90
10583;DHT22;33679;51.218;6.786;2022-09-13T00:44:57;22.60;99.90
10583;DHT22;33679;51.218;6.786;2022-09-13T00:47:34;22.60;99.90
10583;DHT22;33679;51.218;6.786;2022-09-13T00:50:14;22.60;99.90
10583;DHT22;33679;51.218;6.786;2022-09-13T00:52:44;22.60;99.90
10583;DHT22;33679;51.218;6.786;2022-09-13T00:55:15;22.60;99.90
10583;DHT22;33679;51.218;6.786;2022-09-13T00:57:46;22.60;99.90
10583;DHT22;33679;51.218;6.786;2022-09-13T01:00:17;22.60;99.90
10583;DHT22;33679;51.218;6.786;2022-09-13T01:02:51;22.60;99.90
10583;DHT22;33679;51.218;6.786;2022-09-13T01:05:23;22.60;99.90
10583;DHT22;33679;51.218;6.786;2022-09-13T01:08:01;22.60;99.90
10583;DHT22;33679;51.218;6.786;2022-09-13T01:10:29;22.60;99.90
10583;DHT22;33679;51.218;6.786;2022-09-13T01:13:02;22.50;99.90
10583;DHT22;33679;51.218;6.786;2022-09-13T01:15:43;22.50;99.90
10583;DHT22;33679;51.218;6.786;2022-09-13T01:18:10;22.50;99.90
10583;DHT22;33679;51.218;6.786;2022-09-13T01:20:48;22.50;99.90
10583;DHT22;33679;51.218;6.786;2022-09-13T01:23:42;22.50;99.90
10583;DHT22;33679;51.218;6.786;2022-09-13T01:33:03;22.40;99.90
10583;DHT22;33679;51.218;6.786;2022-09-13T01:35:46;22.40;99.90
10583;DHT22;33679;51.218;6.786;2022-09-13T01:38:47;22.40;99.90
10583;DHT22;33679;51.218;6.786;2022-09-13T01:41:47;22.40;99.90
10583;DHT22;33679;51.218;6.786;2022-09-13T01:44:26;22.40;99.90
10583;DHT22;33679;51.218;6.786;2022-09-13T01:47:02;22.40;99.90
10583;DHT22;33679;51.218;6.786;2022-09-13T01:49:46;22.40;99.90
10583;DHT22;33679;51.218;6.786;2022-09-13T01:52:19;22.40;99.90
10583;DHT22;33679;51.218;6.786;2022-09-13T01:54:55;22.40;99.90
10583;DHT22;33679;51.218;6.786;2022-09-13T01:57:33;22.30;99.90
10583;DHT22;33679;51.218;6.786;2022-09-13T02:00:05;22.30;99.90
10583;DHT22;33679;51.218;6.786;2022-09-13T02:02:44;22.30;99.90
10583;DHT22;33679;51.218;6.786;2022-09-13T02:05:17;22.30;99.90
10583;DHT22;33679;51.218;6.786;2022-09-13T02:07:50;22.30;99.90
10583;DHT22;33679;51.218;6.786;2022-09-13T02:10:34;22.30;99.90
10583;DHT22;33679;51.218;6.786;2022-09-13T02:13:06;22.30;99.90
10583;DHT22;33679;51.218;6.786;2022-09-13T02:15:52;22.30;99.90
10583;DHT22;33679;51.218;6.786;2022-09-13T02:18:27;22.30;99.90
10583;DHT22;33679;51.218;6.786;2022-09-13T02:21:11;22.30;99.90
10583;DHT22;33679;51.218;6.786;2022-09-13T02:23:43;22.30;99.90
10583;DHT22;33679;51.218;6.786;2022-09-13T02:26:15;22.30;99.90
10583;DHT22;33679;51.218;6.786;2022-09-13T02:28:50;22.30;99.90
10583;DHT22;33679;51.218;6.786;2022-09-13T02:31:22;22.30;99.90
10583;DHT22;33679;51.218;6.786;2022-09-13T02:33:59;22.30;99.90
10583;DHT22;33679;51.218;6.786;2022-09-13T02:36:33;22.30;99.90
10583;DHT22;33679;51.218;6.786;2022-09-13T02:39:06;22.30;99.90
10583;DHT22;33679;51.218;6.786;2022-09-13T02:41:53;22.20;99.90
10583;DHT22;33679;51.218;6.786;2022-09-13T02:44:26;22.20;99.90
10583;DHT22;33679;51.218;6.786;2022-09-13T02:47:10;22.20;99.90
10583;DHT22;33679;51.218;6.786;2022-09-13T02:50:01;22.20;99.90
10583;DHT22;33679;51.218;6.786;2022-09-13T02:52:39;22.20;99.90
10583;DHT22;33679;51.218;6.786;2022-09-13T02:55:20;22.20;99.90
10583;DHT22;33679;51.218;6.786;2022-09-13T02:58:01;22.20;99.90
10583;DHT22;33679;51.218;6.786;2022-09-13T03:00:32;22.20;99.90
10583;DHT22;33679;51.218;6.786;2022-09-13T03:03:23;22.20;99.90
10583;DHT22;33679;51.218;6.786;2022-09-13T03:05:53;22.20;99.90
10583;DHT22;33679;51.218;6.786;2022-09-13T03:08:23;22.20;99.90
10583;DHT22;33679;51.218;6.786;2022-09-13T03:11:03;22.30;99.90
10583;DHT22;33679;51.218;6.786;2022-09-13T03:16:52;22.30;99.90
10583;DHT22;33679;51.218;6.786;2022-09-13T03:19:45;22.30;99.90
10583;DHT22;33679;51.218;6.786;2022-09-13T03:22:28;22.30;99.90
10583;DHT22;33679;51.218;6.786;2022-09-13T03:25:16;22.30;99.90
10583;DHT22;33679;51.218;6.786;2022-09-13T03:27:51;22.30;99.90
10583;DHT22;33679;51.218;6.786;2022-09-13T03:30:32;22.30;99.90
10583;DHT22;33679;51.218;6.786;2022-09-13T03:33:03;22.30;99.90
10583;DHT22;33679;51.218;6.786;2022-09-13T03:35:39;22.30;99.90
10583;DHT22;33679;51.218;6.786;2022-09-13T03:38:18;22.30;99.90
10583;DHT22;33679;51.218;6.786;2022-09-13T03:40:52;22.30;99.90
10583;DHT22;33679;51.218;6.786;2022-09-13T03:43:35;22.30;99.90
10583;DHT22;33679;51.218;6.786;2022-09-13T03:46:07;22.30;99.90
10583;DHT22;33679;51.218;6.786;2022-09-13T03:48:41;22.20;99.90
10583;DHT22;33679;51.218;6.786;2022-09-13T03:51:13;22.20;99.90
10583;DHT22;33679;51.218;6.786;2022-09-13T03:53:44;22.20;99.90
10583;DHT22;33679;51.218;6.786;2022-09-13T03:56:14;22.20;99.90
10583;DHT22;33679;51.218;6.786;2022-09-13T03:58:59;22.10;99.90
10583;DHT22;33679;51.218;6.786;2022-09-13T04:01:27;22.10;99.90
10583;DHT22;33679;51.218;6.786;2022-09-13T04:03:54;22.10;99.90
10583;DHT22;33679;51.218;6.786;2022-09-13T04:06:31;22.10;99.90
10583;DHT22;33679;51.218;6.786;2022-09-13T04:08:59;22.10;99.90
10583;DHT22;33679;51.218;6.786;2022-09-13T04:11:28;22.10;99.90
10583;DHT22;33679;51.218;6.786;2022-09-13T04:13:57;22.10;99.90
10583;DHT22;33679;51.218;6.786;2022-09-13T04:16:24;22.00;99.90
10583;DHT22;33679;51.218;6.786;2022-09-13T04:19:01;22.00;99.90
10583;DHT22;33679;51.218;6.786;2022-09-13T04:21:28;22.00;99.90
10583;DHT22;33679;51.218;6.786;2022-09-13T04:23:56;22.00;99.90
10583;DHT22;33679;51.218;6.786;2022-09-13T04:26:23;22.00;99.90
10583;DHT22;33679;51.218;6.786;2022-09-13T04:29:05;22.00;99.90
10583;DHT22;33679;51.218;6.786;2022-09-13T04:31:32;22.00;99.90
10583;DHT22;33679;51.218;6.786;2022-09-13T04:33:59;22.00;99.90
10583;DHT22;33679;51.218;6.786;2022-09-13T04:36:37;22.00;99.90
10583;DHT22;33679;51.218;6.786;2022-09-13T04:39:06;22.00;99.90
10583;DHT22;33679;51.218;6.786;2022-09-13T04:41:33;22.10;99.90
10583;DHT22;33679;51.218;6.786;2022-09-13T04:44:00;22.00;99.90
10583;DHT22;33679;51.218;6.786;2022-09-13T04:46:39;22.10;99.90
10583;DHT22;33679;51.218;6.786;2022-09-13T04:49:08;22.10;99.90
10583;DHT22;33679;51.218;6.786;2022-09-13T04:51:35;22.10;99.90
10583;DHT22;33679;51.218;6.786;2022-09-13T04:54:05;22.10;99.90
10583;DHT22;33679;51.218;6.786;2022-09-13T04:56:40;22.00;99.90
10583;DHT22;33679;51.218;6.786;2022-09-13T04:59:10;22.00;99.90
10583;DHT22;33679;51.218;6.786;2022-09-13T05:01:40;22.00;99.90
10583;DHT22;33679;51.218;6.786;2022-09-13T05:04:08;22.00;99.90
10583;DHT22;33679;51.218;6.786;2022-09-13T05:06:44;22.00;99.90
10583;DHT22;33679;51.218;6.786;2022-09-13T05:09:14;22.00;99.90
10583;DHT22;33679;51.218;6.786;2022-09-13T05:11:41;22.00;99.90
10583;DHT22;33679;51.218;6.786;2022-09-13T05:14:09;22.00;99.90
10583;DHT22;33679;51.218;6.786;2022-09-13T05:16:44;21.90;99.90
10583;DHT22;33679;51.218;6.786;2022-09-13T05:19:12;21.90;99.90
10583;DHT22;33679;51.218;6.786;2022-09-13T05:21:39;21.90;99.90
10583;DHT22;33679;51.218;6.786;2022-09-13T05:24:09;21.80;99.90
10583;DHT22;33679;51.218;6.786;2022-09-13T05:26:43;21.80;99.90
10583;DHT22;33679;51.218;6.786;2022-09-13T05:29:17;21.70;99.90
10583;DHT22;33679;51.218;6.786;2022-09-13T05:31:48;21.70;99.90
10583;DHT22;33679;51.218;6.786;2022-09-13T05:34:16;21.70;99.90
10583;DHT22;33679;51.218;6.786;2022-09-13T05:36:50;21.70;99.90
10583;DHT22;33679;51.218;6.786;2022-09-13T05:39:17;21.80;99.90
10583;DHT22;33679;51.218;6.786;2022-09-13T05:41:49;21.80;99.90
10583;DHT22;33679;51.218;6.786;2022-09-13T05:44:16;21.80;99.90
10583;DHT22;33679;51.218;6.786;2022-09-13T05:47:00;21.80;99.90
10583;DHT22;33679;51.218;6.786;2022-09-13T05:49:28;21.80;99.90
10583;DHT22;33679;51.218;6.786;2022-09-13T05:51:55;21.90;99.90
10583;DHT22;33679;51.218;6.786;2022-09-13T05:54:24;21.90;99.90
10583;DHT22;33679;51.218;6.786;2022-09-13T05:57:02;21.90;99.90
10583;DHT22;33679;51.218;6.786;2022-09-13T05:59:30;21.90;99.90
10583;DHT22;33679;51.218;6.786;2022-09-13T06:01:57;21.90;99.90
10583;DHT22;33679;51.218;6.786;2022-09-13T06:04:34;21.90;99.90
10583;DHT22;33679;51.218;6.786;2022-09-13T06:07:02;21.90;99.90
10583;DHT22;33679;51.218;6.786;2022-09-13T06:09:29;21.90;99.90
10583;DHT22;33679;51.218;6.786;2022-09-13T06:11:58;21.90;99.90
10583;DHT22;33679;51.218;6.786;2022-09-13T06:14:25;21.90;99.90
10583;DHT22;33679;51.218;6.786;2022-09-13T06:16:59;22.00;99.90
10583;DHT22;33679;51.218;6.786;2022-09-13T06:20:20;22.00;99.90
10583;DHT22;33679;51.218;6.786;2022-09-13T06:23:37;22.00;99.90
10583;DHT22;33679;51.218;6.786;2022-09-13T06:26:08;22.10;99.90
10583;DHT22;33679;51.218;6.786;2022-09-13T06:28:37;22.10;99.90
10583;DHT22;33679;51.218;6.786;2022-09-13T06:31:08;22.20;99.90
10583;DHT22;33679;51.218;6.786;2022-09-13T06:33:42;22.20;99.90
10583;DHT22;33679;51.218;6.786;2022-09-13T06:36:12;22.20;99.90
10583;DHT22;33679;51.218;6.786;2022-09-13T06:38:40;22.20;99.90
10583;DHT22;33679;51.218;6.786;2022-09-13T06:41:09;22.30;99.90
10583;DHT22;33679;51.218;6.786;2022-09-13T06:43:46;22.30;99.90
10583;DHT22;33679;51.218;6.786;2022-09-13T06:46:15;22.40;99.90
10583;DHT22;33679;51.218;6.786;2022-09-13T06:48:43;22.50;99.90
10583;DHT22;33679;51.218;6.786;2022-09-13T06:51:18;22.50;99.90
10583;DHT22;33679;51.218;6.786;2022-09-13T06:53:47;22.50;99.90
10583;DHT22;33679;51.218;6.786;2022-09-13T06:56:16;22.60;99.90
10583;DHT22;33679;51.218;6.786;2022-09-13T06:58:45;22.60;99.90
10583;DHT22;33679;51.218;6.786;2022-09-13T07:01:14;22.60;99.90
10583;DHT22;33679;51.218;6.786;2022-09-13T07:03:52;22.60;99.90
10583;DHT22;33679;51.218;6.786;2022-09-13T07:06:25;22.60;99.90
10583;DHT22;33679;51.218;6.786;2022-09-13T07:08:53;22.60;99.90
10583;DHT22;33679;51.218;6.786;2022-09-13T07:11:29;22.70;99.90
10583;DHT22;33679;51.218;6.786;2022-09-13T07:14:03;22.80;99.90
10583;DHT22;33679;51.218;6.786;2022-09-13T07:16:33;22.80;99.90
10583;DHT22;33679;51.218;6.786;2022-09-13T07:19:12;22.80;99.90
10583;DHT22;33679;51.218;6.786;2022-09-13T07:21:41;22.80;99.90
10583;DHT22;33679;51.218;6.786;2022-09-13T07:24:09;22.90;99.90
10583;DHT22;33679;51.218;6.786;2022-09-13T07:26:37;22.90;99.90
10583;DHT22;33679;51.218;6.786;2022-09-13T07:29:10;22.90;99.90
10583;DHT22;33679;51.218;6.786;2022-09-13T07:31:39;23.00;99.90
10583;DHT22;33679;51.218;6.786;2022-09-13T07:34:11;23.00;99.90
10583;DHT22;33679;51.218;6.786;2022-09-13T07:36:53;23.00;99.90
10583;DHT22;33679;51.218;6.786;2022-09-13T07:39:20;23.10;99.90
10583;DHT22;33679;51.218;6.786;2022-09-13T07:41:49;23.10;99.90
10583;DHT22;33679;51.218;6.786;2022-09-13T07:44:16;23.10;99.90
10583;DHT22;33679;51.218;6.786;2022-09-13T07:46:50;23.20;99.90
10583;DHT22;33679;51.218;6.786;2022-09-13T07:49:19;23.20;99.90
10583;DHT22;33679;51.218;6.786;2022-09-13T07:51:49;23.30;99.90
10583;DHT22;33679;51.218;6.786;2022-09-13T07:54:18;23.30;99.90
10583;DHT22;33679;51.218;6.786;2022-09-13T07:56:48;23.40;99.90
10583;DHT22;33679;51.218;6.786;2022-09-13T07:59:22;23.40;99.90
10583;DHT22;33679;51.218;6.786;2022-09-13T08:01:52;23.50;99.90
10583;DHT22;33679;51.218;6.786;2022-09-13T08:04:23;23.60;99.90
10583;DHT22;33679;51.218;6.786;2022-09-13T08:07:00;23.60;99.90
10583;DHT22;33679;51.218;6.786;2022-09-13T08:09:28;23.70;99.90
10583;DHT22;33679;51.218;6.786;2022-09-13T08:11:56;23.80;99.90
10583;DHT22;33679;51.218;6.786;2022-09-13T08:14:24;23.80;99.90
10583;DHT22;33679;51.218;6.786;2022-09-13T08:17:00;23.90;99.90
10583;DHT22;33679;51.218;6.786;2022-09-13T08:19:28;23.90;99.90
10583;DHT22;33679;51.218;6.786;2022-09-13T08:22:02;23.90;99.90
10583;DHT22;33679;51.218;6.786;2022-09-13T08:24:49;24.10;99.90
10583;DHT22;33679;51.218;6.786;2022-09-13T08:27:17;24.10;99.90
10583;DHT22;33679;51.218;6.786;2022-09-13T08:29:44;24.10;99.90
10583;DHT22;33679;51.218;6.786;2022-09-13T08:32:13;24.10;99.90
10583;DHT22;33679;51.218;6.786;2022-09-13T08:34:48;24.10;99.90
10583;DHT22;33679;51.218;6.786;2022-09-13T08:37:17;24.20;99.90
10583;DHT22;33679;51.218;6.786;2022-09-13T08:39:45;24.30;99.90
10583;DHT22;33679;51.218;6.786;2022-09-13T08:42:23;24.30;99.90
10583;DHT22;33679;51.218;6.786;2022-09-13T08:44:58;24.30;99.90
10583;DHT22;33679;51.218;6.786;2022-09-13T08:47:39;24.30;99.90
10583;DHT22;33679;51.218;6.786;2022-09-13T08:50:17;24.40;99.90
10583;DHT22;33679;51.218;6.786;2022-09-13T08:53:01;24.50;99.90
10583;DHT22;33679;51.218;6.786;2022-09-13T08:55:39;24.50;99.90
10583;DHT22;33679;51.218;6.786;2022-09-13T08:58:24;24.60;99.90
10583;DHT22;33679;51.218;6.786;2022-09-13T09:00:59;24.60;99.90
10583;DHT22;33679;51.218;6.786;2022-09-13T09:03:40;24.70;99.90
10583;DHT22;33679;51.218;6.786;2022-09-13T09:06:13;24.70;99.90
10583;DHT22;33679;51.218;6.786;2022-09-13T09:08:45;24.80;99.90
10583;DHT22;33679;51.218;6.786;2022-09-13T09:11:24;24.90;99.90
10583;DHT22;33679;51.218;6.786;2022-09-13T09:13:58;24.90;99.90
10583;DHT22;33679;51.218;6.786;2022-09-13T09:16:34;24.90;99.90
10583;DHT22;33679;51.218;6.786;2022-09-13T09:19:12;24.90;99.90
10583;DHT22;33679;51.218;6.786;2022-09-13T09:21:43;25.00;99.90
10583;DHT22;33679;51.218;6.786;2022-09-13T09:24:23;24.90;99.90
10583;DHT22;33679;51.218;6.786;2022-09-13T09:26:55;25.00;99.90
10583;DHT22;33679;51.218;6.786;2022-09-13T09:29:26;25.10;99.90
10583;DHT22;33679;51.218;6.786;2022-09-13T09:32:23;25.10;99.90
10583;DHT22;33679;51.218;6.786;2022-09-13T09:35:18;25.10;99.90
10583;DHT22;33679;51.218;6.786;2022-09-13T09:38:29;25.20;99.90
10583;DHT22;33679;51.218;6.786;2022-09-13T09:41:04;25.30;99.90
10583;DHT22;33679;51.218;6.786;2022-09-13T09:43:37;25.30;99.90
10583;DHT22;33679;51.218;6.786;2022-09-13T09:46:20;25.40;99.90
10583;DHT22;33679;51.218;6.786;2022-09-13T09:48:53;25.50;99.90
10583;DHT22;33679;51.218;6.786;2022-09-13T09:51:34;25.50;99.90
10583;DHT22;33679;51.218;6.786;2022-09-13T09:54:04;25.60;99.90
10583;DHT22;33679;51.218;6.786;2022-09-13T09:56:51;25.70;99.90
10583;DHT22;33679;51.218;6.786;2022-09-13T09:59:25;25.80;99.90
10583;DHT22;33679;51.218;6.786;2022-09-13T10:01:54;25.80;99.90
10583;DHT22;33679;51.218;6.786;2022-09-13T10:04:28;25.80;99.90
10583;DHT22;33679;51.218;6.786;2022-09-13T10:07:15;25.80;99.90
10583;DHT22;33679;51.218;6.786;2022-09-13T10:09:58;25.80;99.90
10583;DHT22;33679;51.218;6.786;2022-09-13T10:12:44;25.80;99.90
10583;DHT22;33679;51.218;6.786;2022-09-13T10:15:19;25.90;99.90
10583;DHT22;33679;51.218;6.786;2022-09-13T10:18:05;25.90;99.90
10583;DHT22;33679;51.218;6.786;2022-09-13T10:20:59;26.00;99.90
10583;DHT22;33679;51.218;6.786;2022-09-13T10:23:30;26.10;99.90
10583;DHT22;33679;51.218;6.786;2022-09-13T10:26:06;26.10;99.90
10583;DHT22;33679;51.218;6.786;2022-09-13T10:28:57;26.30;99.90
10583;DHT22;33679;51.218;6.786;2022-09-13T10:31:40;26.40;99.90
10583;DHT22;33679;51.218;6.786;2022-09-13T10:34:13;26.50;99.90
10583;DHT22;33679;51.218;6.786;2022-09-13T10:36:59;26.60;99.90
10583;DHT22;33679;51.218;6.786;2022-09-13T10:39:29;26.70;99.90
10583;DHT22;33679;51.218;6.786;2022-09-13T10:42:01;26.80;99.90
10583;DHT22;33679;51.218;6.786;2022-09-13T10:44:53;26.80;99.90
10583;DHT22;33679;51.218;6.786;2022-09-13T10:47:56;26.90;99.90
10583;DHT22;33679;51.218;6.786;2022-09-13T10:50:40;27.00;99.90
10583;DHT22;33679;51.218;6.786;2022-09-13T10:54:09;27.00;99.90
10583;DHT22;33679;51.218;6.786;2022-09-13T10:57:38;27.20;99.90
10583;DHT22;33679;51.218;6.786;2022-09-13T11:07:19;27.20;99.90
10583;DHT22;33679;51.218;6.786;2022-09-13T11:10:12;27.20;99.90
10583;DHT22;33679;51.218;6.786;2022-09-13T11:13:05;27.10;99.90
10583;DHT22;33679;51.218;6.786;2022-09-13T11:15:56;27.10;99.90
10583;DHT22;33679;51.218;6.786;2022-09-13T11:22:26;26.90;99.90
10583;DHT22;33679;51.218;6.786;2022-09-13T11:25:08;26.70;99.90
10583;DHT22;33679;51.218;6.786;2022-09-13T11:27:48;26.70;99.90
10583;DHT22;33679;51.218;6.786;2022-09-13T11:30:18;26.60;99.90
10583;DHT22;33679;51.218;6.786;2022-09-13T11:33:13;26.60;99.90
10583;DHT22;33679;51.218;6.786;2022-09-13T11:35:48;26.60;99.90
10583;DHT22;33679;51.218;6.786;2022-09-13T11:38:34;26.60;99.90
10583;DHT22;33679;51.218;6.786;2022-09-13T11:41:13;26.60;99.90
10583;DHT22;33679;51.218;6.786;2022-09-13T11:43:55;26.70;99.90
10583;DHT22;33679;51.218;6.786;2022-09-13T11:46:33;26.70;99.90
10583;DHT22;33679;51.218;6.786;2022-09-13T11:49:29;26.70;99.90
10583;DHT22;33679;51.218;6.786;2022-09-13T11:52:08;26.70;99.90
10583;DHT22;33679;51.218;6.786;2022-09-13T11:54:54;26.80;99.90
10583;DHT22;33679;51.218;6.786;2022-09-13T11:57:30;26.90;99.90
10583;DHT22;33679;51.218;6.786;2022-09-13T12:00:33;27.00;99.90
10583;DHT22;33679;51.218;6.786;2022-09-13T12:03:32;27.00;99.90
10583;DHT22;33679;51.218;6.786;2022-09-13T12:06:40;27.10;99.90
10583;DHT22;33679;51.218;6.786;2022-09-13T12:09:45;27.40;99.90
10583;DHT22;33679;51.218;6.786;2022-09-13T12:12:31;27.40;99.90
10583;DHT22;33679;51.218;6.786;2022-09-13T12:15:04;27.70;99.90
10583;DHT22;33679;51.218;6.786;2022-09-13T12:17:38;27.60;99.90
10583;DHT22;33679;51.218;6.786;2022-09-13T12:20:15;27.60;99.90
10583;DHT22;33679;51.218;6.786;2022-09-13T12:22:52;27.60;99.90
10583;DHT22;33679;51.218;6.786;2022-09-13T12:25:23;27.50;99.90
10583;DHT22;33679;51.218;6.786;2022-09-13T12:28:06;27.50;99.90
10583;DHT22;33679;51.218;6.786;2022-09-13T12:30:51;27.40;99.90
10583;DHT22;33679;51.218;6.786;2022-09-13T12:33:24;27.50;99.90
10583;DHT22;33679;51.218;6.786;2022-09-13T12:36:15;27.50;99.90
10583;DHT22;33679;51.218;6.786;2022-09-13T12:39:21;27.50;99.90
10583;DHT22;33679;51.218;6.786;2022-09-13T12:42:14;27.50;99.90
10583;DHT22;33679;51.218;6.786;2022-09-13T12:45:10;27.40;99.90
10583;DHT22;33679;51.218;6.786;2022-09-13T12:48:11;27.50;99.90
10583;DHT22;33679;51.218;6.786;2022-09-13T12:50:49;27.30;99.90
10583;DHT22;33679;51.218;6.786;2022-09-13T12:54:03;27.20;99.90
10583;DHT22;33679;51.218;6.786;2022-09-13T12:57:03;27.30;99.90
10583;DHT22;33679;51.218;6.786;2022-09-13T12:59:57;27.50;99.90
10583;DHT22;33679;51.218;6.786;2022-09-13T13:02:49;27.50;99.90
10583;DHT22;33679;51.218;6.786;2022-09-13T13:05:23;27.50;99.90
10583;DHT22;33679;51.218;6.786;2022-09-13T13:08:05;27.40;99.90
10583;DHT22;33679;51.218;6.786;2022-09-13T13:10:35;27.40;99.90
10583;DHT22;33679;51.218;6.786;2022-09-13T13:13:15;27.50;99.90
10583;DHT22;33679;51.218;6.786;2022-09-13T13:16:05;27.50;99.90
10583;DHT22;33679;51.218;6.786;2022-09-13T13:18:44;27.40;99.90
10583;DHT22;33679;51.218;6.786;2022-09-13T13:21:40;27.40;99.90
10583;DHT22;33679;51.218;6.786;2022-09-13T13:24:43;27.40;99.90
10583;DHT22;33679;51.218;6.786;2022-09-13T13:27:40;27.50;99.90
10583;DHT22;33679;51.218;6.786;2022-09-13T13:30:40;27.40;99.90
10583;DHT22;33679;51.218;6.786;2022-09-13T13:33:45;27.50;99.90
10583;DHT22;33679;51.218;6.786;2022-09-13T13:36:25;27.40;99.90
10583;DHT22;33679;51.218;6.786;2022-09-13T13:38:55;27.40;99.90
10583;DHT22;33679;51.218;6.786;2022-09-13T13:41:43;27.40;99.90
10583;DHT22;33679;51.218;6.786;2022-09-13T13:53:40;27.50;99.90
10583;DHT22;33679;51.218;6.786;2022-09-13T13:56:19;27.50;99.90
10583;DHT22;33679;51.218;6.786;2022-09-13T13:58:59;27.50;99.90
10583;DHT22;33679;51.218;6.786;2022-09-13T14:01:32;27.50;99.90
10583;DHT22;33679;51.218;6.786;2022-09-13T14:07:44;27.60;99.90
10583;DHT22;33679;51.218;6.786;2022-09-13T14:10:22;27.60;99.90
10583;DHT22;33679;51.218;6.786;2022-09-13T14:13:02;27.50;99.90
10583;DHT22;33679;51.218;6.786;2022-09-13T14:16:03;27.60;99.90
10583;DHT22;33679;51.218;6.786;2022-09-13T14:18:56;27.60;99.90
10583;DHT22;33679;51.218;6.786;2022-09-13T14:21:28;27.50;99.90
10583;DHT22;33679;51.218;6.786;2022-09-13T14:24:17;27.50;99.90
10583;DHT22;33679;51.218;6.786;2022-09-13T14:26:49;27.60;99.90
10583;DHT22;33679;51.218;6.786;2022-09-13T14:29:19;27.70;99.90
10583;DHT22;33679;51.218;6.786;2022-09-13T14:31:50;27.60;99.90
10583;DHT22;33679;51.218;6.786;2022-09-13T14:34:22;27.60;99.90
10583;DHT22;33679;51.218;6.786;2022-09-13T14:36:51;27.60;99.90
10583;DHT22;33679;51.218;6.786;2022-09-13T14:39:21;27.60;99.90
10583;DHT22;33679;51.218;6.786;2022-09-13T14:42:00;27.70;99.90
10583;DHT22;33679;51.218;6.786;2022-09-13T14:44:28;27.70;99.90
10583;DHT22;33679;51.218;6.786;2022-09-13T14:47:04;27.80;99.90
10583;DHT22;33679;51.218;6.786;2022-09-13T14:49:47;27.80;99.90
10583;DHT22;33679;51.218;6.786;2022-09-13T14:52:22;27.80;99.90
10583;DHT22;33679;51.218;6.786;2022-09-13T14:55:10;27.80;99.90
10583;DHT22;33679;51.218;6.786;2022-09-13T14:58:01;27.80;99.90
10583;DHT22;33679;51.218;6.786;2022-09-13T15:00:51;27.80;99.90
10583;DHT22;33679;51.218;6.786;2022-09-13T15:03:21;27.80;99.90
10583;DHT22;33679;51.218;6.786;2022-09-13T15:05:54;27.90;99.90
10583;DHT22;33679;51.218;6.786;2022-09-13T15:08:51;27.90;99.90
10583;DHT22;33679;51.218;6.786;2022-09-13T15:11:31;28.00;99.90
10583;DHT22;33679;51.218;6.786;2022-09-13T15:14:33;28.00;99.90
10583;DHT22;33679;51.218;6.786;2022-09-13T15:17:32;28.00;99.90
10583;DHT22;33679;51.218;6.786;2022-09-13T15:20:27;27.90;99.90
10583;DHT22;33679;51.218;6.786;2022-09-13T15:22:55;27.80;99.90
10583;DHT22;33679;51.218;6.786;2022-09-13T15:25:27;27.80;99.90
10583;DHT22;33679;51.218;6.786;2022-09-13T15:28:04;27.80;99.90
10583;DHT22;33679;51.218;6.786;2022-09-13T15:30:40;27.90;99.90
10583;DHT22;33679;51.218;6.786;2022-09-13T15:33:23;27.90;99.90
10583;DHT22;33679;51.218;6.786;2022-09-13T15:36:11;27.90;99.90
10583;DHT22;33679;51.218;6.786;2022-09-13T15:39:13;27.80;99.90
10583;DHT22;33679;51.218;6.786;2022-09-13T15:41:53;27.80;99.90
10583;DHT22;33679;51.218;6.786;2022-09-13T15:44:33;27.80;99.90
10583;DHT22;33679;51.218;6.786;2022-09-13T15:47:15;27.70;99.90
10583;DHT22;33679;51.218;6.786;2022-09-13T15:49:53;27.70;99.90
10583;DHT22;33679;51.218;6.786;2022-09-13T15:52:21;27.70;99.90
10583;DHT22;33679;51.218;6.786;2022-09-13T15:54:49;27.60;99.90
10583;DHT22;33679;51.218;6.786;2022-09-13T16:00:15;27.60;99.90
10583;DHT22;33679;51.218;6.786;2022-09-13T16:03:02;27.50;99.90
10583;DHT22;33679;51.218;6.786;2022-09-13T16:05:30;27.50;99.90
10583;DHT22;33679;51.218;6.786;2022-09-13T16:07:57;27.40;99.90
10583;DHT22;33679;51.218;6.786;2022-09-13T16:10:41;27.40;99.90
10583;DHT22;33679;51.218;6.786;2022-09-13T16:13:08;27.40;99.90
10583;DHT22;33679;51.218;6.786;2022-09-13T16:15:37;27.50;99.90
10583;DHT22;33679;51.218;6.786;2022-09-13T16:18:28;27.40;99.90
10583;DHT22;33679;51.218;6.786;2022-09-13T16:21:52;27.40;99.90
10583;DHT22;33679;51.218;6.786;2022-09-13T16:24:25;27.40;99.90
10583;DHT22;33679;51.218;6.786;2022-09-13T16:27:14;27.40;99.90
10583;DHT22;33679;51.218;6.786;2022-09-13T16:30:13;27.40;99.90
10583;DHT22;33679;51.218;6.786;2022-09-13T16:33:05;27.40;99.90
10583;DHT22;33679;51.218;6.786;2022-09-13T16:35:58;27.40;99.90
10583;DHT22;33679;51.218;6.786;2022-09-13T16:38:26;27.30;99.90
10583;DHT22;33679;51.218;6.786;2022-09-13T16:40:53;27.30;99.90
10583;DHT22;33679;51.218;6.786;2022-09-13T16:43:21;27.30;99.90
10583;DHT22;33679;51.218;6.786;2022-09-13T16:46:05;27.20;99.90
10583;DHT22;33679;51.218;6.786;2022-09-13T16:48:36;27.20;99.90
10583;DHT22;33679;51.218;6.786;2022-09-13T16:51:19;27.20;99.90
10583;DHT22;33679;51.218;6.786;2022-09-13T16:53:49;27.20;99.90
10583;DHT22;33679;51.218;6.786;2022-09-13T16:56:21;27.10;99.90
10583;DHT22;33679;51.218;6.786;2022-09-13T16:59:03;27.10;99.90
10583;DHT22;33679;51.218;6.786;2022-09-13T17:01:32;27.10;99.90
10583;DHT22;33679;51.218;6.786;2022-09-13T17:04:03;27.10;99.90
10583;DHT22;33679;51.218;6.786;2022-09-13T17:06:53;27.00;99.90
10583;DHT22;33679;51.218;6.786;2022-09-13T17:09:34;27.10;99.90
10583;DHT22;33679;51.218;6.786;2022-09-13T17:12:31;27.00;99.90
10583;DHT22;33679;51.218;6.786;2022-09-13T17:15:02;26.90;99.90